Hamilton/John C. Munro Hamilton International Airport

Airport
ICAO code: 
CYHM
IATA Code: 
YHM
Summary
ICAO Region: 
NAM
Territory: 
Location: 
Hamilton, Ontario,
Serving: 
Hamilton
Elevation: 
780 ft
Coordinates: 
Aerial View: 
43° 10' 23.002" N, 79° 56' 6" W
Metar
Observation
CYHM 272000Z 24010KT 15SM SCT034 SCT140 BKN260 00/M07 A2992 RMK CU3AC1CI3 SLP142
Station
Hamilton Airport
Date/Time
2021-11-27 20:00:00
Wind direction
240°
Wind speed
10 kts
Lowest cloud amount
scattered clouds
Temperature
0°C
Dew point
-7°C
Humidity
59%
Weather condition
n/a

Description

John C. Munro Hamilton International Airport or Hamilton International, is an international airport in Hamilton, Ontario, Canada.

Climatology

Humid continental climate (Köppen climate classification Dfa) - characterized by four seasons: cold, windy, snowy winters, mild springs, hot, humid summers, and crisp and relatively short autumns. Precipitation reaches its lowest in January and February and peaks in summer and latter half of spring.

Runways

Designator Length Width Surface Rops
6/24 1829 46 ASP Yes/Yes
12/30 3048 61 ASP Yes/Yes
Airport map: 
Aerial View: 

Accidents and Serious Incidents at or in the vicinity of CYHM

SKYbrary Partners:

Safety knowledge contributed by: